Time;durP1;ratioP1;P1;durP2;ratioP2;P2;SDS_P1;SDS_P2;PMS_P1;PMS_P2;Temp;Humidity;BMP_temperature;BMP_pressure;BME280_temperature;BME280_humidity;BME280_pressure;Samples;Min_cycle;Max_cycle;Signal;HPM_P1;HPM_P2
2022/01/25 00:25:45;;;;;;;24.15;13.57;;;;;;;;;;4995853;28;20660;-52
2022/01/25 00:33:23;;;;;;;25.63;15.63;;;;;;;;;;4998691;28;20227;-52
2022/01/25 00:35:49;;;;;;;22.47;14.53;;;;;;;;;;4994672;28;20197;-52
2022/01/25 00:38:15;;;;;;;26.67;14.77;;;;;;;;;;4997702;28;20420;-52
2022/01/25 00:40:41;;;;;;;26.20;14.87;;;;;;;;;;4997753;28;20397;-52
2022/01/25 00:43:07;;;;;;;23.50;14.13;;;;;;;;;;4996933;28;20436;-52
2022/01/25 00:45:33;;;;;;;23.30;14.55;;;;;;;;;;4997034;28;20409;-52
2022/01/25 00:48:02;;;;;;;22.50;14.53;;;;;;;;;;4995472;28;20921;-52
2022/01/25 00:50:36;;;;;;;23.23;14.25;;;;;;;;;;4995267;28;20427;-52
2022/01/25 00:55:27;;;;;;;23.67;14.67;;;;;;;;;;4997169;28;20211;-52
2022/01/25 00:57:53;;;;;;;22.58;13.85;;;;;;;;;;4997515;28;20973;-52
2022/01/25 01:00:20;;;;;;;24.70;14.60;;;;;;;;;;4996938;28;20223;-52
2022/01/25 01:02:46;;;;;;;23.30;14.50;;;;;;;;;;4996926;28;20427;-52
2022/01/25 01:05:12;;;;;;;30.83;14.90;;;;;;;;;;4995816;28;20185;-52
2022/01/25 01:07:40;;;;;;;25.88;14.23;;;;;;;;;;4996448;28;20408;-52
2022/01/25 01:10:06;;;;;;;25.58;14.80;;;;;;;;;;4997109;28;20569;-52
2022/01/25 01:29:07;;;;;;;35.45;15.90;;;;;;;;;;4995959;28;20184;-52
2022/01/25 01:34:24;;;;;;;26.25;15.75;;;;;;;;;;4996123;28;20561;-52
2022/01/25 01:45:12;;;;;;;27.02;16.13;;;;;;;;;;4995911;28;20173;-52
2022/01/25 01:47:49;;;;;;;24.00;14.20;;;;;;;;;;4996191;28;20177;-52
2022/01/25 01:50:27;;;;;;;25.60;14.55;;;;;;;;;;4995530;28;20211;-52
2022/01/25 01:52:53;;;;;;;25.85;14.52;;;;;;;;;;4994475;28;20188;-52
2022/01/25 01:55:19;;;;;;;26.45;14.25;;;;;;;;;;4994451;28;20214;-52
2022/01/25 01:57:48;;;;;;;22.77;14.80;;;;;;;;;;4995959;28;20172;-52
2022/01/25 02:00:15;;;;;;;27.00;15.57;;;;;;;;;;4995284;28;20533;-52
2022/01/25 02:02:41;;;;;;;25.45;15.15;;;;;;;;;;4995506;28;20196;-52
2022/01/25 02:05:07;;;;;;;31.50;16.40;;;;;;;;;;4994849;28;20173;-52
2022/01/25 02:07:33;;;;;;;29.10;15.38;;;;;;;;;;4994292;28;20527;-52
2022/01/25 02:09:59;;;;;;;25.20;14.83;;;;;;;;;;4995482;28;20196;-52
2022/01/25 02:12:25;;;;;;;27.43;16.23;;;;;;;;;;4995532;28;20955;-52
2022/01/25 02:14:52;;;;;;;28.05;16.35;;;;;;;;;;4996033;28;20404;-52
2022/01/25 02:22:58;;;;;;;32.88;13.90;;;;;;;;;;4996040;28;20196;-52
2022/01/25 02:25:24;;;;;;;29.45;15.55;;;;;;;;;;4996080;28;20174;-52
2022/01/25 02:27:50;;;;;;;23.77;15.35;;;;;;;;;;4995821;28;20532;-52
2022/01/25 02:30:17;;;;;;;24.47;15.47;;;;;;;;;;4994633;28;20173;-53
2022/01/25 02:32:43;;;;;;;26.00;14.77;;;;;;;;;;4994134;28;20424;-52
2022/01/25 02:35:10;;;;;;;28.13;15.20;;;;;;;;;;4995267;28;20188;-52
2022/01/25 02:37:37;;;;;;;25.13;15.27;;;;;;;;;;4993215;28;20185;-52
2022/01/25 02:40:04;;;;;;;24.80;14.63;;;;;;;;;;4995124;28;20165;-52
2022/01/25 02:42:30;;;;;;;28.92;15.15;;;;;;;;;;4995291;28;20709;-52
2022/01/25 02:44:56;;;;;;;29.97;14.60;;;;;;;;;;4995154;28;20165;-52
2022/01/25 02:50:07;;;;;;;28.80;15.50;;;;;;;;;;4994869;28;20239;-52
2022/01/25 02:52:33;;;;;;;27.90;15.45;;;;;;;;;;4994645;28;20255;-52
2022/01/25 02:54:59;;;;;;;38.50;17.88;;;;;;;;;;4995181;28;20708;-52
2022/01/25 02:57:25;;;;;;;25.83;13.90;;;;;;;;;;4994708;28;20248;-52
2022/01/25 02:59:51;;;;;;;25.20;15.47;;;;;;;;;;4997549;28;20400;-52
2022/01/25 03:02:18;;;;;;;29.83;16.58;;;;;;;;;;4997225;28;20415;-52
2022/01/25 03:04:44;;;;;;;34.67;17.63;;;;;;;;;;4997204;28;20173;-52
2022/01/25 03:07:10;;;;;;;28.45;15.80;;;;;;;;;;4997147;28;20234;-52
2022/01/25 03:09:37;;;;;;;30.27;16.55;;;;;;;;;;4998731;28;20679;-52
2022/01/25 03:12:06;;;;;;;33.28;16.85;;;;;;;;;;4997841;28;20748;-52
2022/01/25 03:14:35;;;;;;;28.92;15.95;;;;;;;;;;4998338;28;20203;-52
2022/01/25 03:22:34;;;;;;;30.42;16.65;;;;;;;;;;4997773;28;20439;-52
2022/01/25 03:25:00;;;;;;;30.35;17.08;;;;;;;;;;4998560;28;20177;-52
2022/01/25 03:27:26;;;;;;;28.60;16.20;;;;;;;;;;4998638;28;20200;-52
2022/01/25 03:29:52;;;;;;;29.27;17.67;;;;;;;;;;4998654;28;20267;-52
2022/01/25 03:32:18;;;;;;;32.93;17.67;;;;;;;;;;4998196;28;20185;-52
2022/01/25 03:34:44;;;;;;;42.17;16.97;;;;;;;;;;4997227;28;20406;-52
2022/01/25 03:37:10;;;;;;;29.70;17.47;;;;;;;;;;4996508;28;20510;-52
2022/01/25 03:39:36;;;;;;;28.40;16.23;;;;;;;;;;4997269;28;20769;-52
2022/01/25 03:42:06;;;;;;;30.27;17.13;;;;;;;;;;4997152;28;20420;-52
2022/01/25 03:44:32;;;;;;;29.10;16.75;;;;;;;;;;4997324;28;20494;-52
2022/01/25 03:47:05;;;;;;;30.23;17.02;;;;;;;;;;4997839;28;20169;-52
2022/01/25 03:52:19;;;;;;;31.45;16.95;;;;;;;;;;4996371;28;20204;-52
2022/01/25 03:54:45;;;;;;;33.47;15.75;;;;;;;;;;4996865;28;20175;-52
2022/01/25 03:57:11;;;;;;;26.30;14.60;;;;;;;;;;4997079;28;20287;-52
2022/01/25 03:59:37;;;;;;;30.77;16.33;;;;;;;;;;4996704;28;20775;-52
2022/01/25 04:02:03;;;;;;;31.70;18.40;;;;;;;;;;4996471;28;20988;-52
2022/01/25 04:04:30;;;;;;;33.08;18.70;;;;;;;;;;4996537;28;20165;-52
2022/01/25 04:06:56;;;;;;;28.17;15.63;;;;;;;;;;4995872;28;20652;-52
2022/01/25 04:09:22;;;;;;;28.30;15.68;;;;;;;;;;4996580;28;20673;-52
2022/01/25 04:11:49;;;;;;;29.83;17.00;;;;;;;;;;4995526;28;20252;-52
2022/01/25 04:14:15;;;;;;;36.85;19.23;;;;;;;;;;4996217;28;20200;-52
2022/01/25 04:17:00;;;;;;;35.43;18.50;;;;;;;;;;4996469;28;20200;-52
2022/01/25 04:24:44;;;;;;;33.25;17.33;;;;;;;;;;4994480;28;20707;-52
2022/01/25 04:27:11;;;;;;;38.72;17.80;;;;;;;;;;4995134;28;20463;-52
2022/01/25 04:29:37;;;;;;;35.88;17.75;;;;;;;;;;4995021;28;20173;-52
2022/01/25 04:32:06;;;;;;;35.00;18.07;;;;;;;;;;4995927;28;20268;-52
2022/01/25 04:56:09;;;;;;;32.95;17.63;;;;;;;;;;4995566;28;20239;-52
2022/01/25 04:58:47;;;;;;;30.60;17.15;;;;;;;;;;4996224;28;20193;-52
2022/01/25 05:01:13;;;;;;;31.77;18.00;;;;;;;;;;4996125;28;20267;-52
2022/01/25 05:03:56;;;;;;;24.92;14.18;;;;;;;;;;4995343;28;20158;-52
2022/01/25 05:06:23;;;;;;;30.27;16.48;;;;;;;;;;4995145;28;20231;-52
2022/01/25 05:08:53;;;;;;;30.05;16.90;;;;;;;;;;4995721;28;20171;-52
2022/01/25 05:11:30;;;;;;;30.30;15.68;;;;;;;;;;4996325;28;20200;-52
2022/01/25 05:14:14;;;;;;;26.83;15.05;;;;;;;;;;4995790;28;20169;-52
2022/01/25 05:16:49;;;;;;;31.30;17.85;;;;;;;;;;4995670;28;20185;-52
2022/01/25 05:24:27;;;;;;;34.47;17.60;;;;;;;;;;4995003;28;20179;-52
2022/01/25 05:26:53;;;;;;;32.83;16.80;;;;;;;;;;4994118;28;20238;-52
2022/01/25 05:29:19;;;;;;;29.30;17.10;;;;;;;;;;4994630;28;20184;-52
2022/01/25 05:31:45;;;;;;;36.40;16.80;;;;;;;;;;4993950;28;20432;-52
2022/01/25 05:34:11;;;;;;;38.23;15.90;;;;;;;;;;4994078;28;20483;-52
2022/01/25 05:36:37;;;;;;;33.17;17.73;;;;;;;;;;4992441;28;20468;-52
2022/01/25 05:39:18;;;;;;;32.72;17.77;;;;;;;;;;4993949;28;20480;-52
2022/01/25 05:41:53;;;;;;;31.45;17.35;;;;;;;;;;4993663;28;20177;-53
2022/01/25 05:44:26;;;;;;;31.58;18.33;;;;;;;;;;4994285;28;20633;-52
2022/01/25 05:49:24;;;;;;;43.22;18.48;;;;;;;;;;4993520;28;20276;-52
2022/01/25 05:51:50;;;;;;;37.42;20.45;;;;;;;;;;4993546;28;20200;-52
2022/01/25 05:54:16;;;;;;;43.22;19.35;;;;;;;;;;4992449;28;20170;-52
2022/01/25 05:56:42;;;;;;;37.42;19.38;;;;;;;;;;4993033;28;20253;-52
2022/01/25 05:59:08;;;;;;;44.73;20.03;;;;;;;;;;4993454;28;20188;-52
2022/01/25 06:01:35;;;;;;;40.65;18.73;;;;;;;;;;4993586;28;20440;-52
2022/01/25 06:04:02;;;;;;;35.45;18.65;;;;;;;;;;4994070;28;20172;-52
2022/01/25 06:06:29;;;;;;;31.40;16.90;;;;;;;;;;4992850;28;20180;-52
2022/01/25 06:08:55;;;;;;;34.10;18.25;;;;;;;;;;4993593;28;20193;-52
2022/01/25 06:11:21;;;;;;;36.22;18.35;;;;;;;;;;4993745;28;20269;-52
2022/01/25 06:13:47;;;;;;;35.17;17.58;;;;;;;;;;4993491;28;20192;-52
2022/01/25 06:16:14;;;;;;;41.65;18.73;;;;;;;;;;4992788;28;20197;-53
2022/01/25 06:18:40;;;;;;;39.80;19.20;;;;;;;;;;4992548;28;20315;-52
2022/01/25 06:21:06;;;;;;;33.38;18.33;;;;;;;;;;4993035;28;20169;-52
2022/01/25 06:23:32;;;;;;;32.50;18.60;;;;;;;;;;4992830;28;20192;-52
2022/01/25 06:25:58;;;;;;;33.25;16.77;;;;;;;;;;4992384;28;20484;-52
2022/01/25 06:28:24;;;;;;;34.50;16.73;;;;;;;;;;4992344;28;20264;-52
2022/01/25 06:30:50;;;;;;;32.33;15.47;;;;;;;;;;4991705;28;20408;-52
2022/01/25 06:33:16;;;;;;;32.72;17.70;;;;;;;;;;4992944;28;20920;-52
2022/01/25 06:35:45;;;;;;;28.87;16.37;;;;;;;;;;4993370;28;20212;-52
2022/01/25 06:38:11;;;;;;;35.83;17.25;;;;;;;;;;4996781;28;20407;-52
2022/01/25 06:40:37;;;;;;;30.02;17.10;;;;;;;;;;4996792;28;20157;-52
2022/01/25 06:43:03;;;;;;;30.47;17.33;;;;;;;;;;4996233;28;20247;-52
2022/01/25 06:45:29;;;;;;;28.17;15.77;;;;;;;;;;4995966;28;20451;-52
2022/01/25 06:47:55;;;;;;;36.45;17.73;;;;;;;;;;4995837;28;20411;-52
2022/01/25 06:50:23;;;;;;;36.73;18.50;;;;;;;;;;4996291;28;20169;-52
2022/01/25 06:52:49;;;;;;;30.60;17.23;;;;;;;;;;4996000;28;20435;-52
2022/01/25 06:55:17;;;;;;;30.15;16.58;;;;;;;;;;4996539;28;20164;-52
2022/01/25 06:57:43;;;;;;;32.53;17.75;;;;;;;;;;4997709;28;20491;-52
2022/01/25 07:00:11;;;;;;;32.97;18.98;;;;;;;;;;4996348;28;20241;-52
2022/01/25 07:02:37;;;;;;;36.50;19.27;;;;;;;;;;4996586;28;20193;-52
2022/01/25 07:05:04;;;;;;;37.40;17.98;;;;;;;;;;4995624;28;20663;-52
2022/01/25 07:07:30;;;;;;;37.67;19.60;;;;;;;;;;4997793;28;20640;-52
2022/01/25 07:09:56;;;;;;;37.50;19.97;;;;;;;;;;4998039;28;20165;-52
2022/01/25 07:12:22;;;;;;;38.03;20.13;;;;;;;;;;4997340;28;20456;-52
2022/01/25 07:14:48;;;;;;;37.45;19.08;;;;;;;;;;4998656;28;20173;-52
2022/01/25 07:17:14;;;;;;;37.37;18.33;;;;;;;;;;4997946;28;20204;-52
2022/01/25 07:19:40;;;;;;;38.13;18.80;;;;;;;;;;4997815;28;20491;-55
2022/01/25 07:22:06;;;;;;;31.83;19.07;;;;;;;;;;4997860;28;21131;-52
2022/01/25 07:24:32;;;;;;;31.55;17.90;;;;;;;;;;4997996;28;20411;-52
2022/01/25 07:26:59;;;;;;;31.48;16.85;;;;;;;;;;4997356;28;20216;-52
2022/01/25 07:29:25;;;;;;;31.52;17.80;;;;;;;;;;4996695;28;20703;-52
2022/01/25 07:31:51;;;;;;;37.10;18.10;;;;;;;;;;4996956;28;20196;-52
2022/01/25 07:34:18;;;;;;;32.08;16.85;;;;;;;;;;4997211;28;20185;-52
2022/01/25 07:36:44;;;;;;;34.17;17.73;;;;;;;;;;4996798;28;20201;-52
2022/01/25 07:39:10;;;;;;;34.70;17.20;;;;;;;;;;4997946;28;20212;-52
2022/01/25 07:41:37;;;;;;;36.45;18.45;;;;;;;;;;4998479;28;20425;-52
2022/01/25 07:44:03;;;;;;;31.63;17.08;;;;;;;;;;4998202;28;20166;-52
2022/01/25 07:46:30;;;;;;;36.45;16.10;;;;;;;;;;4997912;28;20193;-52
2022/01/25 07:48:57;;;;;;;32.03;17.15;;;;;;;;;;4997572;28;20629;-52
2022/01/25 07:51:25;;;;;;;30.77;17.40;;;;;;;;;;4999104;28;20259;-52
2022/01/25 07:53:51;;;;;;;33.65;17.58;;;;;;;;;;4998805;28;20203;-52
2022/01/25 07:56:17;;;;;;;34.50;17.40;;;;;;;;;;4998893;28;20196;-52
2022/01/25 07:58:43;;;;;;;37.97;19.77;;;;;;;;;;4997790;28;20404;-52
2022/01/25 08:01:09;;;;;;;32.00;17.77;;;;;;;;;;4997098;28;20428;-52
2022/01/25 08:03:37;;;;;;;36.05;19.38;;;;;;;;;;4996811;28;20427;-52
2022/01/25 08:06:03;;;;;;;34.85;18.60;;;;;;;;;;4995502;28;20181;-52
2022/01/25 08:08:29;;;;;;;38.67;20.80;;;;;;;;;;4998033;28;20260;-52
2022/01/25 08:10:55;;;;;;;33.67;18.30;;;;;;;;;;4997551;28;20262;-52
2022/01/25 08:13:21;;;;;;;32.47;17.20;;;;;;;;;;4998409;28;20411;-52
2022/01/25 08:15:47;;;;;;;34.87;19.80;;;;;;;;;;4999133;28;20452;-52
2022/01/25 08:18:13;;;;;;;34.53;18.13;;;;;;;;;;4999788;28;20451;-52
2022/01/25 08:20:39;;;;;;;33.45;18.15;;;;;;;;;;4999887;28;20169;-52
2022/01/25 08:23:05;;;;;;;32.93;17.43;;;;;;;;;;5000098;28;20239;-52
2022/01/25 08:25:31;;;;;;;37.55;18.33;;;;;;;;;;5000320;28;20892;-52
2022/01/25 08:27:57;;;;;;;40.78;18.95;;;;;;;;;;4998801;28;20169;-52
2022/01/25 08:30:23;;;;;;;37.88;19.83;;;;;;;;;;4998778;28;20553;-52
2022/01/25 08:32:51;;;;;;;40.22;20.55;;;;;;;;;;4999959;28;20572;-52
2022/01/25 08:35:17;;;;;;;37.58;19.83;;;;;;;;;;4997689;28;20243;-52
2022/01/25 08:37:43;;;;;;;30.77;17.90;;;;;;;;;;5000389;28;20166;-52
2022/01/25 08:40:10;;;;;;;33.77;17.93;;;;;;;;;;4998106;28;20176;-52
2022/01/25 08:42:36;;;;;;;37.22;19.77;;;;;;;;;;4999329;28;20423;-52
2022/01/25 08:45:03;;;;;;;39.63;20.40;;;;;;;;;;4999301;28;20227;-52
2022/01/25 08:47:29;;;;;;;34.38;17.73;;;;;;;;;;4998794;28;20165;-52
2022/01/25 08:49:56;;;;;;;37.87;18.17;;;;;;;;;;4999189;28;20188;-52
2022/01/25 08:52:22;;;;;;;38.47;17.27;;;;;;;;;;4998655;28;20514;-52
2022/01/25 08:54:48;;;;;;;31.20;17.37;;;;;;;;;;4998935;28;20220;-52
2022/01/25 08:57:14;;;;;;;48.70;20.02;;;;;;;;;;4999022;28;20454;-52
2022/01/25 08:59:40;;;;;;;38.70;19.80;;;;;;;;;;4998825;28;20232;-52
2022/01/25 09:02:06;;;;;;;42.57;20.20;;;;;;;;;;4999158;28;20478;-52
2022/01/25 09:04:32;;;;;;;43.00;21.23;;;;;;;;;;4997557;28;20783;-52
2022/01/25 09:06:59;;;;;;;35.65;20.20;;;;;;;;;;4998809;28;20480;-52
2022/01/25 09:09:25;;;;;;;39.50;20.73;;;;;;;;;;4997604;28;20687;-52
2022/01/25 09:11:51;;;;;;;40.67;18.13;;;;;;;;;;4998210;28;20235;-52
2022/01/25 09:14:17;;;;;;;33.90;18.03;;;;;;;;;;4998496;28;20489;-51
2022/01/25 09:16:43;;;;;;;37.80;18.75;;;;;;;;;;4998294;28;21189;-52
2022/01/25 09:19:09;;;;;;;37.42;18.50;;;;;;;;;;4997897;28;20605;-52
2022/01/25 09:21:35;;;;;;;48.75;20.80;;;;;;;;;;4998982;28;20189;-52
2022/01/25 09:24:01;;;;;;;49.60;19.25;;;;;;;;;;4999539;28;20173;-52
2022/01/25 09:26:28;;;;;;;41.17;21.08;;;;;;;;;;4999478;28;20169;-52
2022/01/25 09:28:55;;;;;;;43.03;20.17;;;;;;;;;;4998552;28;20177;-52
2022/01/25 09:31:24;;;;;;;42.50;22.83;;;;;;;;;;4997781;28;20192;-52
2022/01/25 09:33:50;;;;;;;53.00;21.88;;;;;;;;;;4998876;28;20656;-51
2022/01/25 09:36:16;;;;;;;44.85;21.63;;;;;;;;;;4997520;28;20224;-52
2022/01/25 09:38:42;;;;;;;43.03;21.20;;;;;;;;;;4999433;28;20169;-52
2022/01/25 09:41:08;;;;;;;48.90;24.37;;;;;;;;;;4998577;28;20459;-52
2022/01/25 09:43:34;;;;;;;49.83;24.57;;;;;;;;;;4998737;28;20443;-52
2022/01/25 09:46:00;;;;;;;38.70;20.08;;;;;;;;;;4998264;28;20431;-52
2022/01/25 09:48:26;;;;;;;47.50;24.17;;;;;;;;;;4997739;28;20633;-52
2022/01/25 09:50:52;;;;;;;46.30;21.50;;;;;;;;;;4998037;28;20408;-52
2022/01/25 09:53:18;;;;;;;42.53;19.70;;;;;;;;;;4998174;28;20299;-52
2022/01/25 09:55:45;;;;;;;48.78;22.23;;;;;;;;;;4997763;28;20251;-52
2022/01/25 09:58:13;;;;;;;52.53;20.23;;;;;;;;;;4998226;28;20615;-52
2022/01/25 10:00:41;;;;;;;39.90;21.05;;;;;;;;;;4997971;28;20605;-52
2022/01/25 10:05:43;;;;;;;48.42;20.98;;;;;;;;;;4996461;28;20193;-52
2022/01/25 10:08:13;;;;;;;37.08;20.10;;;;;;;;;;4998323;28;20184;-52
2022/01/25 10:10:42;;;;;;;44.58;20.85;;;;;;;;;;4996993;28;20176;-52
2022/01/25 10:13:23;;;;;;;35.92;18.05;;;;;;;;;;4997167;28;20758;-52
2022/01/25 10:15:51;;;;;;;40.95;21.10;;;;;;;;;;4999475;28;20232;-52
2022/01/25 10:18:18;;;;;;;35.97;17.60;;;;;;;;;;5002764;28;20513;-52
2022/01/25 10:20:48;;;;;;;45.00;19.58;;;;;;;;;;5002121;28;20169;-52
2022/01/25 10:23:17;;;;;;;38.85;21.30;;;;;;;;;;5002660;28;20259;-52
2022/01/25 10:25:45;;;;;;;34.95;19.55;;;;;;;;;;5002251;28;20176;-52
2022/01/25 10:28:13;;;;;;;37.40;18.75;;;;;;;;;;5001615;28;20660;-52
2022/01/25 10:30:46;;;;;;;43.72;19.60;;;;;;;;;;5001447;28;20196;-52
2022/01/25 10:33:25;;;;;;;38.25;19.77;;;;;;;;;;5000542;28;20203;-51
2022/01/25 10:35:51;;;;;;;47.05;20.25;;;;;;;;;;5001968;28;20193;-52
2022/01/25 10:38:31;;;;;;;35.40;18.35;;;;;;;;;;5002803;28;20249;-52
2022/01/25 10:41:02;;;;;;;40.22;19.27;;;;;;;;;;5002166;28;20656;-52
2022/01/25 10:43:28;;;;;;;48.70;20.38;;;;;;;;;;5000276;28;20188;-52
2022/01/25 10:46:04;;;;;;;44.58;20.88;;;;;;;;;;4997909;28;20181;-52
2022/01/25 10:48:30;;;;;;;40.45;19.55;;;;;;;;;;4998524;28;20184;-52
2022/01/25 10:51:10;;;;;;;35.45;18.27;;;;;;;;;;4998365;28;20181;-52
2022/01/25 10:53:36;;;;;;;41.20;18.15;;;;;;;;;;4998553;28;20184;-52
2022/01/25 10:56:03;;;;;;;48.72;21.88;;;;;;;;;;4998574;28;20215;-52
2022/01/25 10:58:30;;;;;;;46.72;20.40;;;;;;;;;;4997702;28;20179;-52
2022/01/25 11:00:58;;;;;;;40.70;19.05;;;;;;;;;;4997397;28;20252;-52
2022/01/25 11:03:29;;;;;;;40.17;20.65;;;;;;;;;;4999181;28;20562;-52
2022/01/25 11:05:55;;;;;;;43.78;21.00;;;;;;;;;;4998265;28;20188;-52
2022/01/25 11:08:22;;;;;;;39.42;19.80;;;;;;;;;;4998493;28;20177;-52
2022/01/25 11:10:54;;;;;;;44.22;20.45;;;;;;;;;;4999062;28;20798;-52
2022/01/25 11:15:57;;;;;;;48.50;20.52;;;;;;;;;;4998680;28;20314;-52
2022/01/25 11:18:23;;;;;;;40.78;20.45;;;;;;;;;;4999191;28;20205;-52
2022/01/25 11:20:53;;;;;;;44.30;21.47;;;;;;;;;;4997275;28;20169;-52
2022/01/25 11:23:19;;;;;;;44.10;22.38;;;;;;;;;;4998948;28;20408;-52
2022/01/25 11:25:46;;;;;;;43.08;18.88;;;;;;;;;;4998525;28;20181;-52
2022/01/25 11:28:12;;;;;;;45.22;21.10;;;;;;;;;;4998543;28;20206;-52
2022/01/25 11:30:40;;;;;;;37.15;19.60;;;;;;;;;;4999238;28;20179;-52
2022/01/25 11:33:07;;;;;;;38.28;20.25;;;;;;;;;;4999269;28;20207;-52
2022/01/25 11:35:33;;;;;;;38.60;19.85;;;;;;;;;;4999936;28;20193;-52
2022/01/25 11:37:59;;;;;;;40.40;20.40;;;;;;;;;;4998938;28;20181;-52
2022/01/25 11:40:30;;;;;;;45.80;21.73;;;;;;;;;;4998330;28;20533;-52
2022/01/25 11:42:57;;;;;;;42.15;21.52;;;;;;;;;;4998094;28;20429;-52
2022/01/25 11:45:24;;;;;;;42.72;20.33;;;;;;;;;;4996987;28;20187;-52
2022/01/25 11:47:51;;;;;;;43.67;21.70;;;;;;;;;;4996960;28;20173;-52
2022/01/25 11:50:18;;;;;;;46.40;22.20;;;;;;;;;;4997503;28;20172;-52
2022/01/25 11:52:51;;;;;;;43.85;19.23;;;;;;;;;;4997368;28;20196;-52
2022/01/25 11:55:23;;;;;;;43.67;18.33;;;;;;;;;;4997282;28;20224;-52
2022/01/25 11:57:52;;;;;;;44.35;19.95;;;;;;;;;;4997636;28;20607;-52
2022/01/25 12:00:21;;;;;;;41.03;19.50;;;;;;;;;;4998237;28;20173;-52
2022/01/25 12:02:49;;;;;;;44.13;19.63;;;;;;;;;;4999169;28;20224;-52
2022/01/25 12:05:18;;;;;;;38.08;19.35;;;;;;;;;;4999182;28;20165;-52
2022/01/25 12:08:02;;;;;;;42.35;19.88;;;;;;;;;;4998683;28;20192;-52
2022/01/25 12:10:43;;;;;;;37.13;18.15;;;;;;;;;;4997077;28;20251;-52
2022/01/25 12:13:16;;;;;;;38.90;17.55;;;;;;;;;;4998599;28;20189;-52
2022/01/25 12:15:43;;;;;;;38.75;19.15;;;;;;;;;;4996956;28;20200;-52
2022/01/25 12:18:10;;;;;;;37.80;18.63;;;;;;;;;;4997632;28;20657;-52
2022/01/25 12:20:47;;;;;;;41.88;20.95;;;;;;;;;;4997508;28;20244;-52
2022/01/25 12:23:18;;;;;;;53.22;19.88;;;;;;;;;;4997098;28;20184;-52
2022/01/25 12:25:52;;;;;;;50.63;22.30;;;;;;;;;;4996670;28;20256;-52
2022/01/25 12:28:22;;;;;;;43.05;20.17;;;;;;;;;;4996529;28;20212;-52
2022/01/25 12:30:48;;;;;;;39.25;19.40;;;;;;;;;;4994894;28;20189;-52
2022/01/25 12:33:20;;;;;;;43.10;20.80;;;;;;;;;;4995892;28;20179;-52
2022/01/25 12:35:47;;;;;;;45.30;20.63;;;;;;;;;;4996084;28;20874;-52
2022/01/25 12:38:18;;;;;;;38.90;18.80;;;;;;;;;;4996848;28;20516;-52
2022/01/25 12:41:07;;;;;;;41.85;18.65;;;;;;;;;;4996788;28;20588;-52
2022/01/25 12:43:38;;;;;;;38.00;17.10;;;;;;;;;;4997054;28;20165;-52
2022/01/25 12:46:10;;;;;;;37.97;18.55;;;;;;;;;;4996681;28;20273;-52
2022/01/25 12:48:39;;;;;;;42.03;17.63;;;;;;;;;;4997291;28;20236;-52
2022/01/25 12:51:07;;;;;;;38.33;16.70;;;;;;;;;;4996406;28;20228;-54
2022/01/25 12:53:34;;;;;;;43.58;22.13;;;;;;;;;;4997728;28;20165;-52
2022/01/25 12:56:10;;;;;;;45.42;19.73;;;;;;;;;;4997776;28;20272;-52
2022/01/25 12:58:37;;;;;;;37.80;17.52;;;;;;;;;;4995799;28;20183;-52
2022/01/25 13:01:06;;;;;;;44.10;19.10;;;;;;;;;;4994877;28;20232;-52
2022/01/25 13:03:36;;;;;;;39.70;17.95;;;;;;;;;;4995307;28;20169;-52
2022/01/25 13:06:09;;;;;;;49.25;19.83;;;;;;;;;;4997811;28;20173;-52
2022/01/25 13:08:43;;;;;;;43.55;19.70;;;;;;;;;;4997310;28;20181;-52
2022/01/25 13:11:18;;;;;;;40.13;19.13;;;;;;;;;;4997462;28;20224;-52
2022/01/25 13:13:57;;;;;;;40.53;18.40;;;;;;;;;;4996908;28;20191;-52
2022/01/25 13:16:36;;;;;;;43.78;18.90;;;;;;;;;;4993604;28;20204;-52
2022/01/25 13:19:03;;;;;;;41.97;19.50;;;;;;;;;;4996804;28;20201;-52
2022/01/25 13:21:36;;;;;;;42.25;19.08;;;;;;;;;;4996311;28;20192;-52
2022/01/25 13:24:02;;;;;;;47.00;19.98;;;;;;;;;;4995532;28;20177;-52
2022/01/25 13:26:28;;;;;;;46.87;20.00;;;;;;;;;;4996314;28;20579;-52
2022/01/25 13:28:56;;;;;;;41.22;18.15;;;;;;;;;;4995860;28;20407;-52
2022/01/25 13:31:23;;;;;;;41.38;19.95;;;;;;;;;;4995887;28;20181;-52
2022/01/25 13:33:50;;;;;;;43.15;19.58;;;;;;;;;;4997111;28;20257;-52
2022/01/25 13:36:20;;;;;;;48.88;19.70;;;;;;;;;;4997129;28;20189;-52
2022/01/25 13:38:48;;;;;;;37.60;17.65;;;;;;;;;;4997552;28;20705;-52
2022/01/25 13:46:26;;;;;;;31.50;14.43;;;;;;;;;;4997659;28;20255;-52
2022/01/25 13:48:55;;;;;;;39.10;16.80;;;;;;;;;;4998364;28;20240;-52
2022/01/25 13:51:23;;;;;;;34.90;16.08;;;;;;;;;;4998147;28;20660;-52
2022/01/25 13:53:51;;;;;;;32.30;17.05;;;;;;;;;;4998273;28;20228;-52
2022/01/25 13:56:18;;;;;;;34.05;15.73;;;;;;;;;;4998466;28;20201;-52
2022/01/25 13:58:48;;;;;;;31.90;15.35;;;;;;;;;;4998686;28;20164;-52
2022/01/25 14:01:15;;;;;;;33.90;16.00;;;;;;;;;;4998644;28;20193;-52
2022/01/25 14:04:01;;;;;;;31.10;13.73;;;;;;;;;;4999639;28;20165;-52
2022/01/25 14:06:31;;;;;;;41.40;17.25;;;;;;;;;;4999512;28;20176;-52
2022/01/25 14:09:02;;;;;;;29.77;15.55;;;;;;;;;;4998674;28;20177;-52
2022/01/25 14:25:25;;;;;;;44.85;18.48;;;;;;;;;;4982315;28;20197;-52
2022/01/25 14:27:55;;;;;;;34.58;16.60;;;;;;;;;;4998922;28;20169;-52
2022/01/25 14:30:21;;;;;;;32.63;15.40;;;;;;;;;;4997436;28;20196;-52
2022/01/25 14:33:16;;;;;;;36.40;17.03;;;;;;;;;;4997578;28;20575;-52
2022/01/25 14:35:43;;;;;;;32.67;13.90;;;;;;;;;;4979652;28;20499;-52
2022/01/25 14:38:14;;;;;;;42.40;15.43;;;;;;;;;;4997039;28;20241;-52
2022/01/25 14:40:39;;;;;;;37.47;16.98;;;;;;;;;;4995599;28;20169;-52
2022/01/25 14:43:05;;;;;;;37.53;16.93;;;;;;;;;;4996273;28;20256;-52
2022/01/25 14:45:32;;;;;;;36.47;18.40;;;;;;;;;;4995491;28;20415;-51
2022/01/25 14:48:00;;;;;;;48.20;19.58;;;;;;;;;;4991186;28;20479;-51
2022/01/25 14:50:32;;;;;;;38.35;17.05;;;;;;;;;;4990922;28;20169;-51
2022/01/25 14:53:02;;;;;;;36.83;16.25;;;;;;;;;;4991093;28;20181;-52
2022/01/25 14:55:29;;;;;;;36.67;16.90;;;;;;;;;;4993638;28;20211;-52
2022/01/25 15:00:46;;;;;;;32.83;16.42;;;;;;;;;;4998170;28;20724;-52
2022/01/25 15:03:12;;;;;;;37.10;17.20;;;;;;;;;;4998864;28;20193;-52
2022/01/25 15:05:38;;;;;;;30.93;15.37;;;;;;;;;;4999981;28;20685;-52
2022/01/25 15:08:04;;;;;;;33.67;15.47;;;;;;;;;;4999192;28;20407;-52
2022/01/25 15:10:32;;;;;;;46.50;17.83;;;;;;;;;;4998092;28;20428;-52
2022/01/25 15:12:58;;;;;;;33.25;16.15;;;;;;;;;;4998901;28;20201;-52
2022/01/25 15:15:26;;;;;;;36.27;14.90;;;;;;;;;;4999355;28;20229;-52
2022/01/25 15:17:52;;;;;;;33.42;15.88;;;;;;;;;;4999691;28;20420;-52
2022/01/25 15:20:18;;;;;;;34.58;14.93;;;;;;;;;;4999915;28;20224;-52
2022/01/25 15:22:46;;;;;;;31.55;14.45;;;;;;;;;;4999704;28;20217;-52
2022/01/25 15:25:14;;;;;;;31.63;13.80;;;;;;;;;;5001294;28;20168;-52
2022/01/25 15:27:40;;;;;;;36.28;15.43;;;;;;;;;;5000082;28;20671;-52
2022/01/25 15:30:07;;;;;;;28.85;13.98;;;;;;;;;;4999990;28;20201;-52
2022/01/25 15:32:32;;;;;;;27.00;13.82;;;;;;;;;;4999989;28;20189;-52
2022/01/25 15:34:58;;;;;;;29.60;13.73;;;;;;;;;;5000842;28;20165;-52
2022/01/25 15:37:24;;;;;;;28.60;13.50;;;;;;;;;;4999917;28;20976;-52
2022/01/25 15:39:51;;;;;;;31.35;14.05;;;;;;;;;;4999856;28;20428;-52
2022/01/25 15:42:19;;;;;;;32.45;14.20;;;;;;;;;;4998467;28;20200;-52
2022/01/25 15:44:47;;;;;;;32.63;13.15;;;;;;;;;;5000080;28;20337;-52
2022/01/25 15:47:17;;;;;;;27.25;13.32;;;;;;;;;;4999584;28;20231;-52
2022/01/25 15:49:43;;;;;;;26.30;12.07;;;;;;;;;;4999208;28;20173;-52
2022/01/25 15:52:09;;;;;;;34.92;13.95;;;;;;;;;;4999737;28;20552;-52
2022/01/25 15:54:36;;;;;;;33.67;15.85;;;;;;;;;;4999666;28;20560;-52
2022/01/25 15:57:02;;;;;;;29.85;13.13;;;;;;;;;;4999384;28;20231;-52
2022/01/25 15:59:28;;;;;;;36.15;15.02;;;;;;;;;;4999423;28;20172;-52
2022/01/25 16:01:57;;;;;;;31.90;14.68;;;;;;;;;;4998850;28;20208;-52
2022/01/25 16:04:24;;;;;;;28.38;12.90;;;;;;;;;;4999292;28;20298;-52
2022/01/25 16:06:50;;;;;;;34.28;13.60;;;;;;;;;;5000500;28;20173;-52
2022/01/25 16:09:16;;;;;;;30.83;14.15;;;;;;;;;;5000796;28;20173;-52
2022/01/25 16:11:42;;;;;;;33.70;14.82;;;;;;;;;;5000849;28;20215;-52
2022/01/25 16:14:08;;;;;;;33.57;13.23;;;;;;;;;;5000075;28;20169;-52
2022/01/25 16:16:34;;;;;;;29.17;13.70;;;;;;;;;;4993413;28;20843;-50
2022/01/25 16:19:00;;;;;;;31.17;13.82;;;;;;;;;;4993106;28;20749;-51
2022/01/25 16:21:26;;;;;;;31.02;13.88;;;;;;;;;;4993073;28;20189;-51
2022/01/25 16:23:53;;;;;;;22.50;11.53;;;;;;;;;;4993043;28;20192;-50
2022/01/25 16:26:19;;;;;;;27.05;14.05;;;;;;;;;;4992971;28;20494;-50
2022/01/25 16:28:46;;;;;;;28.88;13.95;;;;;;;;;;4993178;28;20188;-50
2022/01/25 16:31:28;;;;;;;36.58;15.10;;;;;;;;;;4992787;28;20189;-52
2022/01/25 16:33:54;;;;;;;28.20;12.48;;;;;;;;;;4992889;28;20602;-52
2022/01/25 16:36:21;;;;;;;34.13;14.00;;;;;;;;;;4992771;28;20240;-52
2022/01/25 16:38:47;;;;;;;27.55;13.07;;;;;;;;;;4992710;28;20161;-51